Weather at Reyes Murillo Airport

Public forecast

Using degrees Celsius for public forecast. Weather courtesy of forecast.io.

Closest aviation weather report (METAR) to Reyes Murillo Airport

Report is more than 6 hours old.

Closest report is José Celestino Mutis Airport, 31.2 nm (57.7 km) NNW. Retrieved 2021/04/12 14:00 UTC (1 day ago):

SKBS 121400Z 16004KT 9999 -DZ FEW040 OVC070 25/25 Q1010 RMK A////

Closest aviation forecast (TAF) to Reyes Murillo Airport

Closest forecast is Matecaña International Airport, 106.3 nm (196.9 km) ESE. Retrieved 2021/04/13 18:45 UTC (9 minutes ago):

TAF SKPE 131630Z 1318/1418 31007KT 9999 SCT017 SCT080 BECMG 1323/1401 VRB03KT FEW017 BKN080 PROB30 TEMPO 1407/1410 9000 DZ TEMPO 1410/1413 8000 MIFG TX28/1319Z TN18/1411Z